sensor_id;sensor_type;location;lat;lon;timestamp;temperature;humidity
42489;DHT22;28118;52.388;9.452;2022-10-18T00:00:16;15.90;99.90
42489;DHT22;28118;52.388;9.452;2022-10-18T00:02:42;15.80;99.90
42489;DHT22;28118;52.388;9.452;2022-10-18T00:05:09;15.80;99.90
42489;DHT22;28118;52.388;9.452;2022-10-18T00:07:36;15.80;99.90
42489;DHT22;28118;52.388;9.452;2022-10-18T00:10:03;15.80;99.90
42489;DHT22;28118;52.388;9.452;2022-10-18T00:12:32;15.80;99.90
42489;DHT22;28118;52.388;9.452;2022-10-18T00:15:00;15.80;99.90
42489;DHT22;28118;52.388;9.452;2022-10-18T00:17:27;15.70;99.90
42489;DHT22;28118;52.388;9.452;2022-10-18T00:19:54;15.70;99.90
42489;DHT22;28118;52.388;9.452;2022-10-18T00:22:20;15.70;99.90
42489;DHT22;28118;52.388;9.452;2022-10-18T00:24:47;15.80;99.90
42489;DHT22;28118;52.388;9.452;2022-10-18T00:27:14;15.80;99.90
42489;DHT22;28118;52.388;9.452;2022-10-18T00:29:40;15.80;99.90
42489;DHT22;28118;52.388;9.452;2022-10-18T00:32:07;15.80;99.90
42489;DHT22;28118;52.388;9.452;2022-10-18T00:34:34;15.80;99.90
42489;DHT22;28118;52.388;9.452;2022-10-18T00:37:00;15.80;99.90
42489;DHT22;28118;52.388;9.452;2022-10-18T00:39:27;15.70;99.90
42489;DHT22;28118;52.388;9.452;2022-10-18T00:41:53;15.70;99.90
42489;DHT22;28118;52.388;9.452;2022-10-18T00:46:50;15.70;99.90
42489;DHT22;28118;52.388;9.452;2022-10-18T00:49:22;15.70;99.90
42489;DHT22;28118;52.388;9.452;2022-10-18T00:51:55;15.80;99.90
42489;DHT22;28118;52.388;9.452;2022-10-18T00:54:23;15.80;99.90
42489;DHT22;28118;52.388;9.452;2022-10-18T00:56:50;15.70;99.90
42489;DHT22;28118;52.388;9.452;2022-10-18T00:59:17;15.70;99.90
42489;DHT22;28118;52.388;9.452;2022-10-18T01:01:45;15.70;99.90
42489;DHT22;28118;52.388;9.452;2022-10-18T01:04:16;15.70;99.90
42489;DHT22;28118;52.388;9.452;2022-10-18T01:13:15;15.70;99.90
42489;DHT22;28118;52.388;9.452;2022-10-18T01:16:14;15.70;99.90
42489;DHT22;28118;52.388;9.452;2022-10-18T01:19:01;15.70;99.90
42489;DHT22;28118;52.388;9.452;2022-10-18T01:21:46;15.70;99.90
42489;DHT22;28118;52.388;9.452;2022-10-18T01:24:26;15.60;99.90
42489;DHT22;28118;52.388;9.452;2022-10-18T01:32:09;15.60;99.90
42489;DHT22;28118;52.388;9.452;2022-10-18T01:34:38;15.60;99.90
42489;DHT22;28118;52.388;9.452;2022-10-18T01:37:08;15.60;99.90
42489;DHT22;28118;52.388;9.452;2022-10-18T01:39:39;15.60;99.90
42489;DHT22;28118;52.388;9.452;2022-10-18T01:42:09;15.50;99.90
42489;DHT22;28118;52.388;9.452;2022-10-18T01:44:38;15.60;99.90
42489;DHT22;28118;52.388;9.452;2022-10-18T01:47:08;15.60;99.90
42489;DHT22;28118;52.388;9.452;2022-10-18T01:49:36;15.60;99.90
42489;DHT22;28118;52.388;9.452;2022-10-18T01:52:02;15.60;99.90
42489;DHT22;28118;52.388;9.452;2022-10-18T01:54:35;15.50;99.90
42489;DHT22;28118;52.388;9.452;2022-10-18T01:57:21;15.50;99.90
42489;DHT22;28118;52.388;9.452;2022-10-18T01:59:59;15.40;99.90
42489;DHT22;28118;52.388;9.452;2022-10-18T02:02:53;15.40;99.90
42489;DHT22;28118;52.388;9.452;2022-10-18T02:05:55;15.40;99.90
42489;DHT22;28118;52.388;9.452;2022-10-18T02:08:53;15.40;99.90
42489;DHT22;28118;52.388;9.452;2022-10-18T02:11:21;15.40;99.90
42489;DHT22;28118;52.388;9.452;2022-10-18T02:13:55;15.50;99.90
42489;DHT22;28118;52.388;9.452;2022-10-18T02:16:30;15.50;99.90
42489;DHT22;28118;52.388;9.452;2022-10-18T02:21:41;15.50;99.90
42489;DHT22;28118;52.388;9.452;2022-10-18T02:24:10;15.50;99.90
42489;DHT22;28118;52.388;9.452;2022-10-18T02:26:38;15.50;99.90
42489;DHT22;28118;52.388;9.452;2022-10-18T02:29:06;15.40;99.90
42489;DHT22;28118;52.388;9.452;2022-10-18T02:31:47;15.50;99.90
42489;DHT22;28118;52.388;9.452;2022-10-18T02:34:22;15.40;99.90
42489;DHT22;28118;52.388;9.452;2022-10-18T02:37:01;15.40;99.90
42489;DHT22;28118;52.388;9.452;2022-10-18T02:39:31;15.40;99.90
42489;DHT22;28118;52.388;9.452;2022-10-18T02:41:58;15.30;99.90
42489;DHT22;28118;52.388;9.452;2022-10-18T02:44:25;15.30;99.90
42489;DHT22;28118;52.388;9.452;2022-10-18T02:46:52;15.40;99.90
42489;DHT22;28118;52.388;9.452;2022-10-18T02:49:19;15.30;99.90
42489;DHT22;28118;52.388;9.452;2022-10-18T02:51:45;15.30;99.90
42489;DHT22;28118;52.388;9.452;2022-10-18T02:54:12;15.30;99.90
42489;DHT22;28118;52.388;9.452;2022-10-18T02:56:39;15.30;99.90
42489;DHT22;28118;52.388;9.452;2022-10-18T02:59:05;15.30;99.90
42489;DHT22;28118;52.388;9.452;2022-10-18T03:01:34;15.20;99.90
42489;DHT22;28118;52.388;9.452;2022-10-18T03:04:02;15.20;99.90
42489;DHT22;28118;52.388;9.452;2022-10-18T03:06:30;15.10;99.90
42489;DHT22;28118;52.388;9.452;2022-10-18T03:08:57;15.10;99.90
42489;DHT22;28118;52.388;9.452;2022-10-18T03:11:23;15.10;99.90
42489;DHT22;28118;52.388;9.452;2022-10-18T03:13:50;15.10;99.90
42489;DHT22;28118;52.388;9.452;2022-10-18T03:16:17;15.10;99.90
42489;DHT22;28118;52.388;9.452;2022-10-18T03:18:43;15.10;99.90
42489;DHT22;28118;52.388;9.452;2022-10-18T03:21:10;15.10;99.90
42489;DHT22;28118;52.388;9.452;2022-10-18T03:23:37;15.00;99.90
42489;DHT22;28118;52.388;9.452;2022-10-18T03:26:04;15.10;99.90
42489;DHT22;28118;52.388;9.452;2022-10-18T03:28:30;15.10;99.90
42489;DHT22;28118;52.388;9.452;2022-10-18T03:31:02;15.00;99.90
42489;DHT22;28118;52.388;9.452;2022-10-18T03:33:30;15.00;99.90
42489;DHT22;28118;52.388;9.452;2022-10-18T03:35:57;15.00;99.90
42489;DHT22;28118;52.388;9.452;2022-10-18T03:38:24;15.00;99.90
42489;DHT22;28118;52.388;9.452;2022-10-18T03:40:51;15.00;99.90
42489;DHT22;28118;52.388;9.452;2022-10-18T03:43:17;15.00;99.90
42489;DHT22;28118;52.388;9.452;2022-10-18T03:45:44;14.90;99.90
42489;DHT22;28118;52.388;9.452;2022-10-18T03:48:10;14.90;99.90
42489;DHT22;28118;52.388;9.452;2022-10-18T03:50:37;14.90;99.90
42489;DHT22;28118;52.388;9.452;2022-10-18T03:53:04;14.90;99.90
42489;DHT22;28118;52.388;9.452;2022-10-18T03:55:31;14.90;99.90
42489;DHT22;28118;52.388;9.452;2022-10-18T03:57:57;14.90;99.90
42489;DHT22;28118;52.388;9.452;2022-10-18T04:00:24;14.90;99.90
42489;DHT22;28118;52.388;9.452;2022-10-18T04:02:50;14.90;99.90
42489;DHT22;28118;52.388;9.452;2022-10-18T04:05:21;14.90;99.90
42489;DHT22;28118;52.388;9.452;2022-10-18T04:07:49;14.90;99.90
42489;DHT22;28118;52.388;9.452;2022-10-18T04:10:16;14.90;99.90
42489;DHT22;28118;52.388;9.452;2022-10-18T04:12:44;14.80;99.90
42489;DHT22;28118;52.388;9.452;2022-10-18T04:15:11;14.80;99.90
42489;DHT22;28118;52.388;9.452;2022-10-18T04:17:37;14.70;99.90
42489;DHT22;28118;52.388;9.452;2022-10-18T04:20:04;14.70;99.90
42489;DHT22;28118;52.388;9.452;2022-10-18T04:22:31;14.70;99.90
42489;DHT22;28118;52.388;9.452;2022-10-18T04:24:58;14.80;99.90
42489;DHT22;28118;52.388;9.452;2022-10-18T04:27:24;14.80;99.90
42489;DHT22;28118;52.388;9.452;2022-10-18T04:29:51;14.80;99.90
42489;DHT22;28118;52.388;9.452;2022-10-18T04:32:18;14.80;99.90
42489;DHT22;28118;52.388;9.452;2022-10-18T04:34:44;14.80;99.90
42489;DHT22;28118;52.388;9.452;2022-10-18T04:37:11;14.80;99.90
42489;DHT22;28118;52.388;9.452;2022-10-18T04:39:37;14.80;99.90
42489;DHT22;28118;52.388;9.452;2022-10-18T04:42:04;14.70;99.90
42489;DHT22;28118;52.388;9.452;2022-10-18T04:44:31;14.70;99.90
42489;DHT22;28118;52.388;9.452;2022-10-18T04:46:57;14.70;99.90
42489;DHT22;28118;52.388;9.452;2022-10-18T04:49:24;14.70;99.90
42489;DHT22;28118;52.388;9.452;2022-10-18T04:51:51;14.70;99.90
42489;DHT22;28118;52.388;9.452;2022-10-18T04:54:17;14.60;99.90
42489;DHT22;28118;52.388;9.452;2022-10-18T04:56:44;14.60;99.90
42489;DHT22;28118;52.388;9.452;2022-10-18T04:59:10;14.50;99.90
42489;DHT22;28118;52.388;9.452;2022-10-18T05:01:37;14.50;99.90
42489;DHT22;28118;52.388;9.452;2022-10-18T05:04:04;14.40;99.90
42489;DHT22;28118;52.388;9.452;2022-10-18T05:06:30;14.40;99.90
42489;DHT22;28118;52.388;9.452;2022-10-18T05:08:57;14.40;99.90
42489;DHT22;28118;52.388;9.452;2022-10-18T05:11:23;14.40;99.90
42489;DHT22;28118;52.388;9.452;2022-10-18T05:13:50;14.40;99.90
42489;DHT22;28118;52.388;9.452;2022-10-18T05:16:17;14.50;99.90
42489;DHT22;28118;52.388;9.452;2022-10-18T05:18:44;14.50;99.90
42489;DHT22;28118;52.388;9.452;2022-10-18T05:21:10;14.60;99.90
42489;DHT22;28118;52.388;9.452;2022-10-18T05:23:38;14.50;99.90
42489;DHT22;28118;52.388;9.452;2022-10-18T05:26:05;14.50;99.90
42489;DHT22;28118;52.388;9.452;2022-10-18T05:28:33;14.50;99.90
42489;DHT22;28118;52.388;9.452;2022-10-18T05:31:07;14.60;99.90
42489;DHT22;28118;52.388;9.452;2022-10-18T05:33:34;14.50;99.90
42489;DHT22;28118;52.388;9.452;2022-10-18T05:36:01;14.50;99.90
42489;DHT22;28118;52.388;9.452;2022-10-18T05:38:28;14.50;99.90
42489;DHT22;28118;52.388;9.452;2022-10-18T05:40:57;14.50;99.90
42489;DHT22;28118;52.388;9.452;2022-10-18T05:43:27;14.50;99.90
42489;DHT22;28118;52.388;9.452;2022-10-18T05:45:54;14.50;99.90
42489;DHT22;28118;52.388;9.452;2022-10-18T05:48:21;14.50;99.90
42489;DHT22;28118;52.388;9.452;2022-10-18T05:50:48;14.40;99.90
42489;DHT22;28118;52.388;9.452;2022-10-18T05:53:14;14.40;99.90
42489;DHT22;28118;52.388;9.452;2022-10-18T05:56:01;14.40;99.90
42489;DHT22;28118;52.388;9.452;2022-10-18T05:58:28;14.50;99.90
42489;DHT22;28118;52.388;9.452;2022-10-18T06:00:58;14.50;99.90
42489;DHT22;28118;52.388;9.452;2022-10-18T06:03:25;14.50;99.90
42489;DHT22;28118;52.388;9.452;2022-10-18T06:05:58;14.50;99.90
42489;DHT22;28118;52.388;9.452;2022-10-18T06:08:25;14.50;99.90
42489;DHT22;28118;52.388;9.452;2022-10-18T06:10:52;14.50;99.90
42489;DHT22;28118;52.388;9.452;2022-10-18T06:13:18;14.40;99.90
42489;DHT22;28118;52.388;9.452;2022-10-18T06:15:45;14.40;99.90
42489;DHT22;28118;52.388;9.452;2022-10-18T06:18:12;14.50;99.90
42489;DHT22;28118;52.388;9.452;2022-10-18T06:20:38;14.50;99.90
42489;DHT22;28118;52.388;9.452;2022-10-18T06:23:05;14.50;99.90
42489;DHT22;28118;52.388;9.452;2022-10-18T06:25:32;14.50;99.90
42489;DHT22;28118;52.388;9.452;2022-10-18T06:27:59;14.50;99.90
42489;DHT22;28118;52.388;9.452;2022-10-18T06:30:25;14.60;99.90
42489;DHT22;28118;52.388;9.452;2022-10-18T06:32:52;14.60;99.90
42489;DHT22;28118;52.388;9.452;2022-10-18T06:35:18;14.70;99.90
42489;DHT22;28118;52.388;9.452;2022-10-18T06:37:45;14.70;99.90
42489;DHT22;28118;52.388;9.452;2022-10-18T06:40:11;14.70;99.90
42489;DHT22;28118;52.388;9.452;2022-10-18T06:42:38;14.80;99.90
42489;DHT22;28118;52.388;9.452;2022-10-18T06:45:06;14.80;99.90
42489;DHT22;28118;52.388;9.452;2022-10-18T06:47:32;14.80;99.90
42489;DHT22;28118;52.388;9.452;2022-10-18T06:49:59;14.80;99.90
42489;DHT22;28118;52.388;9.452;2022-10-18T06:52:26;14.80;99.90
42489;DHT22;28118;52.388;9.452;2022-10-18T06:54:52;14.80;99.90
42489;DHT22;28118;52.388;9.452;2022-10-18T06:57:19;14.90;99.90
42489;DHT22;28118;52.388;9.452;2022-10-18T06:59:46;14.90;99.90
42489;DHT22;28118;52.388;9.452;2022-10-18T07:02:14;14.90;99.90
42489;DHT22;28118;52.388;9.452;2022-10-18T07:04:42;14.90;99.90
42489;DHT22;28118;52.388;9.452;2022-10-18T07:07:09;15.00;99.90
42489;DHT22;28118;52.388;9.452;2022-10-18T07:09:36;15.00;99.90
42489;DHT22;28118;52.388;9.452;2022-10-18T07:12:02;15.00;99.90
42489;DHT22;28118;52.388;9.452;2022-10-18T07:14:29;15.10;99.90
42489;DHT22;28118;52.388;9.452;2022-10-18T07:16:58;15.10;99.90
42489;DHT22;28118;52.388;9.452;2022-10-18T07:19:25;15.10;99.90
42489;DHT22;28118;52.388;9.452;2022-10-18T07:21:51;15.20;99.90
42489;DHT22;28118;52.388;9.452;2022-10-18T07:24:18;15.10;99.90
42489;DHT22;28118;52.388;9.452;2022-10-18T07:26:45;15.20;99.90
42489;DHT22;28118;52.388;9.452;2022-10-18T07:29:11;15.20;99.90
42489;DHT22;28118;52.388;9.452;2022-10-18T07:31:38;15.30;99.90
42489;DHT22;28118;52.388;9.452;2022-10-18T07:34:08;15.30;99.90
42489;DHT22;28118;52.388;9.452;2022-10-18T07:36:36;15.30;99.90
42489;DHT22;28118;52.388;9.452;2022-10-18T07:39:03;15.30;99.90
42489;DHT22;28118;52.388;9.452;2022-10-18T07:41:29;15.30;99.90
42489;DHT22;28118;52.388;9.452;2022-10-18T07:43:59;15.30;99.90
42489;DHT22;28118;52.388;9.452;2022-10-18T07:46:26;15.40;99.90
42489;DHT22;28118;52.388;9.452;2022-10-18T07:48:53;15.50;99.90
42489;DHT22;28118;52.388;9.452;2022-10-18T07:51:20;15.60;99.90
42489;DHT22;28118;52.388;9.452;2022-10-18T07:53:47;15.70;99.90
42489;DHT22;28118;52.388;9.452;2022-10-18T07:56:16;15.90;99.90
42489;DHT22;28118;52.388;9.452;2022-10-18T07:58:48;15.90;99.90
42489;DHT22;28118;52.388;9.452;2022-10-18T08:01:17;16.10;99.90
42489;DHT22;28118;52.388;9.452;2022-10-18T08:03:44;16.00;99.90
42489;DHT22;28118;52.388;9.452;2022-10-18T08:06:14;16.10;99.90
42489;DHT22;28118;52.388;9.452;2022-10-18T08:08:41;16.20;99.90
42489;DHT22;28118;52.388;9.452;2022-10-18T08:11:11;16.30;99.90
42489;DHT22;28118;52.388;9.452;2022-10-18T08:13:38;16.40;99.90
42489;DHT22;28118;52.388;9.452;2022-10-18T08:16:07;16.40;99.90
42489;DHT22;28118;52.388;9.452;2022-10-18T08:18:35;16.30;99.90
42489;DHT22;28118;52.388;9.452;2022-10-18T08:21:04;16.30;99.90
42489;DHT22;28118;52.388;9.452;2022-10-18T08:23:31;16.30;99.90
42489;DHT22;28118;52.388;9.452;2022-10-18T08:26:10;16.30;99.90
42489;DHT22;28118;52.388;9.452;2022-10-18T08:28:37;16.30;99.90
42489;DHT22;28118;52.388;9.452;2022-10-18T08:31:06;16.30;99.90
42489;DHT22;28118;52.388;9.452;2022-10-18T08:33:33;16.40;99.90
42489;DHT22;28118;52.388;9.452;2022-10-18T08:36:03;16.50;99.90
42489;DHT22;28118;52.388;9.452;2022-10-18T08:38:35;16.50;99.90
42489;DHT22;28118;52.388;9.452;2022-10-18T08:44:20;16.20;99.90
42489;DHT22;28118;52.388;9.452;2022-10-18T08:47:11;16.20;99.90
42489;DHT22;28118;52.388;9.452;2022-10-18T08:50:11;16.20;99.90
42489;DHT22;28118;52.388;9.452;2022-10-18T08:55:21;16.10;99.90
42489;DHT22;28118;52.388;9.452;2022-10-18T08:57:50;16.10;99.90
42489;DHT22;28118;52.388;9.452;2022-10-18T09:00:23;16.10;99.90
42489;DHT22;28118;52.388;9.452;2022-10-18T09:03:06;16.20;99.90
42489;DHT22;28118;52.388;9.452;2022-10-18T09:06:01;16.30;99.90
42489;DHT22;28118;52.388;9.452;2022-10-18T09:09:01;16.20;99.90
42489;DHT22;28118;52.388;9.452;2022-10-18T09:22:50;16.50;99.90
42489;DHT22;28118;52.388;9.452;2022-10-18T09:27:55;16.60;99.90
42489;DHT22;28118;52.388;9.452;2022-10-18T09:30:25;16.50;99.90
42489;DHT22;28118;52.388;9.452;2022-10-18T09:36:00;16.60;99.90
42489;DHT22;28118;52.388;9.452;2022-10-18T09:38:35;16.70;99.90
42489;DHT22;28118;52.388;9.452;2022-10-18T09:41:27;16.90;99.90
42489;DHT22;28118;52.388;9.452;2022-10-18T09:44:00;16.80;99.90
42489;DHT22;28118;52.388;9.452;2022-10-18T09:46:32;16.80;99.90
42489;DHT22;28118;52.388;9.452;2022-10-18T09:49:26;17.00;99.90
42489;DHT22;28118;52.388;9.452;2022-10-18T09:51:54;16.90;99.90
42489;DHT22;28118;52.388;9.452;2022-10-18T09:57:10;16.70;99.90
42489;DHT22;28118;52.388;9.452;2022-10-18T09:59:43;16.60;99.90
42489;DHT22;28118;52.388;9.452;2022-10-18T10:02:16;16.60;99.90
42489;DHT22;28118;52.388;9.452;2022-10-18T10:04:43;16.50;99.90
42489;DHT22;28118;52.388;9.452;2022-10-18T10:07:17;16.70;99.90
42489;DHT22;28118;52.388;9.452;2022-10-18T10:09:58;17.00;99.90
42489;DHT22;28118;52.388;9.452;2022-10-18T10:12:37;17.20;99.90
42489;DHT22;28118;52.388;9.452;2022-10-18T10:15:21;17.20;99.90
42489;DHT22;28118;52.388;9.452;2022-10-18T10:18:02;17.50;99.90
42489;DHT22;28118;52.388;9.452;2022-10-18T10:20:43;17.50;99.90
42489;DHT22;28118;52.388;9.452;2022-10-18T10:23:30;17.30;99.90
42489;DHT22;28118;52.388;9.452;2022-10-18T10:26:00;16.60;99.90
42489;DHT22;28118;52.388;9.452;2022-10-18T10:28:34;16.50;99.90
42489;DHT22;28118;52.388;9.452;2022-10-18T10:34:04;16.30;99.90
42489;DHT22;28118;52.388;9.452;2022-10-18T10:36:32;16.30;99.90
42489;DHT22;28118;52.388;9.452;2022-10-18T10:39:14;16.20;99.90
42489;DHT22;28118;52.388;9.452;2022-10-18T10:41:49;16.30;99.90
42489;DHT22;28118;52.388;9.452;2022-10-18T10:44:17;16.40;99.90
42489;DHT22;28118;52.388;9.452;2022-10-18T10:46:45;16.30;99.90
42489;DHT22;28118;52.388;9.452;2022-10-18T10:49:19;16.30;99.90
42489;DHT22;28118;52.388;9.452;2022-10-18T10:52:06;16.30;99.90
42489;DHT22;28118;52.388;9.452;2022-10-18T10:54:48;16.60;99.90
42489;DHT22;28118;52.388;9.452;2022-10-18T10:57:25;16.80;99.90
42489;DHT22;28118;52.388;9.452;2022-10-18T10:59:54;17.00;99.90
42489;DHT22;28118;52.388;9.452;2022-10-18T11:02:35;17.20;99.90
42489;DHT22;28118;52.388;9.452;2022-10-18T11:05:25;17.20;99.90
42489;DHT22;28118;52.388;9.452;2022-10-18T11:08:01;17.20;99.90
42489;DHT22;28118;52.388;9.452;2022-10-18T11:10:32;17.30;99.90
42489;DHT22;28118;52.388;9.452;2022-10-18T11:15:51;17.00;99.90
42489;DHT22;28118;52.388;9.452;2022-10-18T11:18:33;17.30;99.90
42489;DHT22;28118;52.388;9.452;2022-10-18T11:21:04;17.50;99.90
42489;DHT22;28118;52.388;9.452;2022-10-18T11:23:35;17.50;99.90
42489;DHT22;28118;52.388;9.452;2022-10-18T11:29:14;17.60;99.90
42489;DHT22;28118;52.388;9.452;2022-10-18T11:57:03;18.60;99.90
42489;DHT22;28118;52.388;9.452;2022-10-18T11:59:49;18.50;99.90
42489;DHT22;28118;52.388;9.452;2022-10-18T12:05:15;18.70;99.90
42489;DHT22;28118;52.388;9.452;2022-10-18T12:08:22;18.60;99.90
42489;DHT22;28118;52.388;9.452;2022-10-18T12:10:54;18.40;99.90
42489;DHT22;28118;52.388;9.452;2022-10-18T12:13:45;19.00;99.90
42489;DHT22;28118;52.388;9.452;2022-10-18T12:16:12;19.10;99.90
42489;DHT22;28118;52.388;9.452;2022-10-18T12:18:55;18.70;99.90
42489;DHT22;28118;52.388;9.452;2022-10-18T12:21:25;18.60;99.90
42489;DHT22;28118;52.388;9.452;2022-10-18T12:24:05;18.70;99.90
42489;DHT22;28118;52.388;9.452;2022-10-18T12:26:59;18.70;99.90
42489;DHT22;28118;52.388;9.452;2022-10-18T12:32:27;19.10;99.90
42489;DHT22;28118;52.388;9.452;2022-10-18T12:35:19;19.20;99.90
42489;DHT22;28118;52.388;9.452;2022-10-18T12:38:11;19.00;99.90
42489;DHT22;28118;52.388;9.452;2022-10-18T12:40:43;19.20;99.90
42489;DHT22;28118;52.388;9.452;2022-10-18T12:43:21;19.50;99.90
42489;DHT22;28118;52.388;9.452;2022-10-18T12:45:57;19.30;99.90
42489;DHT22;28118;52.388;9.452;2022-10-18T12:48:43;19.20;99.90
42489;DHT22;28118;52.388;9.452;2022-10-18T12:51:17;19.30;99.90
42489;DHT22;28118;52.388;9.452;2022-10-18T13:07:18;19.80;99.90
42489;DHT22;28118;52.388;9.452;2022-10-18T13:15:43;19.30;99.90
42489;DHT22;28118;52.388;9.452;2022-10-18T13:18:41;19.60;99.90
42489;DHT22;28118;52.388;9.452;2022-10-18T13:26:51;19.40;99.90
42489;DHT22;28118;52.388;9.452;2022-10-18T13:30:04;19.10;99.90
42489;DHT22;28118;52.388;9.452;2022-10-18T13:32:53;18.80;99.90
42489;DHT22;28118;52.388;9.452;2022-10-18T13:46:19;18.10;99.90
42489;DHT22;28118;52.388;9.452;2022-10-18T14:01:06;18.00;99.90
42489;DHT22;28118;52.388;9.452;2022-10-18T14:06:43;17.80;99.90
42489;DHT22;28118;52.388;9.452;2022-10-18T14:09:33;17.70;99.90
42489;DHT22;28118;52.388;9.452;2022-10-18T14:12:42;17.80;99.90
42489;DHT22;28118;52.388;9.452;2022-10-18T14:15:25;17.70;99.90
42489;DHT22;28118;52.388;9.452;2022-10-18T14:17:59;17.80;99.90
42489;DHT22;28118;52.388;9.452;2022-10-18T14:20:39;17.80;99.90
42489;DHT22;28118;52.388;9.452;2022-10-18T14:23:32;17.70;99.90
42489;DHT22;28118;52.388;9.452;2022-10-18T14:26:10;17.70;99.90
42489;DHT22;28118;52.388;9.452;2022-10-18T14:28:38;17.70;99.90
42489;DHT22;28118;52.388;9.452;2022-10-18T14:31:24;17.70;99.90
42489;DHT22;28118;52.388;9.452;2022-10-18T14:33:54;17.60;99.90
42489;DHT22;28118;52.388;9.452;2022-10-18T14:36:26;17.50;99.90
42489;DHT22;28118;52.388;9.452;2022-10-18T14:39:05;17.50;99.90
42489;DHT22;28118;52.388;9.452;2022-10-18T14:41:34;17.50;99.90
42489;DHT22;28118;52.388;9.452;2022-10-18T14:46:48;17.40;99.90
42489;DHT22;28118;52.388;9.452;2022-10-18T14:49:16;17.30;99.90
42489;DHT22;28118;52.388;9.452;2022-10-18T14:51:45;17.10;99.90
42489;DHT22;28118;52.388;9.452;2022-10-18T14:54:19;17.10;99.90
42489;DHT22;28118;52.388;9.452;2022-10-18T14:56:49;17.10;99.90
42489;DHT22;28118;52.388;9.452;2022-10-18T14:59:27;17.10;99.90
42489;DHT22;28118;52.388;9.452;2022-10-18T15:02:00;17.00;99.90
42489;DHT22;28118;52.388;9.452;2022-10-18T15:04:30;17.00;99.90
42489;DHT22;28118;52.388;9.452;2022-10-18T15:07:05;16.90;99.90
42489;DHT22;28118;52.388;9.452;2022-10-18T15:09:34;16.90;99.90
42489;DHT22;28118;52.388;9.452;2022-10-18T15:12:04;16.90;99.90
42489;DHT22;28118;52.388;9.452;2022-10-18T15:14:32;16.80;99.90
42489;DHT22;28118;52.388;9.452;2022-10-18T15:17:10;16.70;99.90
42489;DHT22;28118;52.388;9.452;2022-10-18T15:19:38;16.60;99.90
42489;DHT22;28118;52.388;9.452;2022-10-18T15:22:07;16.60;99.90
42489;DHT22;28118;52.388;9.452;2022-10-18T15:25:15;16.50;99.90
42489;DHT22;28118;52.388;9.452;2022-10-18T15:27:50;16.40;99.90
42489;DHT22;28118;52.388;9.452;2022-10-18T15:30:25;16.30;99.90
42489;DHT22;28118;52.388;9.452;2022-10-18T15:32:58;16.30;99.90
42489;DHT22;28118;52.388;9.452;2022-10-18T15:35:33;16.20;99.90
42489;DHT22;28118;52.388;9.452;2022-10-18T15:38:16;16.10;99.90
42489;DHT22;28118;52.388;9.452;2022-10-18T15:40:48;16.00;99.90
42489;DHT22;28118;52.388;9.452;2022-10-18T15:45:55;15.90;99.90
42489;DHT22;28118;52.388;9.452;2022-10-18T15:48:33;15.80;99.90
42489;DHT22;28118;52.388;9.452;2022-10-18T15:51:02;15.80;99.90
42489;DHT22;28118;52.388;9.452;2022-10-18T15:53:50;15.70;99.90
42489;DHT22;28118;52.388;9.452;2022-10-18T15:56:36;15.60;99.90
42489;DHT22;28118;52.388;9.452;2022-10-18T15:59:11;15.50;99.90
42489;DHT22;28118;52.388;9.452;2022-10-18T16:01:45;15.50;99.90
42489;DHT22;28118;52.388;9.452;2022-10-18T16:04:28;15.30;99.90
42489;DHT22;28118;52.388;9.452;2022-10-18T16:06:55;15.30;99.90
42489;DHT22;28118;52.388;9.452;2022-10-18T16:09:24;15.20;99.90
42489;DHT22;28118;52.388;9.452;2022-10-18T16:11:51;15.10;99.90
42489;DHT22;28118;52.388;9.452;2022-10-18T16:14:23;15.00;99.90
42489;DHT22;28118;52.388;9.452;2022-10-18T16:16:55;14.90;99.90
42489;DHT22;28118;52.388;9.452;2022-10-18T16:19:22;14.80;99.90
42489;DHT22;28118;52.388;9.452;2022-10-18T16:21:53;14.70;99.90
42489;DHT22;28118;52.388;9.452;2022-10-18T16:24:20;14.60;99.90
42489;DHT22;28118;52.388;9.452;2022-10-18T16:26:47;14.50;99.90
42489;DHT22;28118;52.388;9.452;2022-10-18T16:29:18;14.40;99.90
42489;DHT22;28118;52.388;9.452;2022-10-18T16:31:47;14.30;99.90
42489;DHT22;28118;52.388;9.452;2022-10-18T16:34:13;14.20;99.90
42489;DHT22;28118;52.388;9.452;2022-10-18T16:36:40;14.20;99.90
42489;DHT22;28118;52.388;9.452;2022-10-18T16:39:13;14.20;99.90
42489;DHT22;28118;52.388;9.452;2022-10-18T16:41:41;14.10;99.90
42489;DHT22;28118;52.388;9.452;2022-10-18T16:44:08;14.00;99.90
42489;DHT22;28118;52.388;9.452;2022-10-18T16:46:34;13.90;99.90
42489;DHT22;28118;52.388;9.452;2022-10-18T16:49:02;13.80;99.90
42489;DHT22;28118;52.388;9.452;2022-10-18T16:51:28;13.70;99.90
42489;DHT22;28118;52.388;9.452;2022-10-18T16:53:55;13.60;99.90
42489;DHT22;28118;52.388;9.452;2022-10-18T16:56:24;13.60;99.90
42489;DHT22;28118;52.388;9.452;2022-10-18T16:58:52;13.60;99.90
42489;DHT22;28118;52.388;9.452;2022-10-18T17:01:21;13.60;99.90
42489;DHT22;28118;52.388;9.452;2022-10-18T17:03:48;13.60;99.90
42489;DHT22;28118;52.388;9.452;2022-10-18T17:06:23;13.50;99.90
42489;DHT22;28118;52.388;9.452;2022-10-18T17:08:49;13.40;99.90
42489;DHT22;28118;52.388;9.452;2022-10-18T17:11:18;13.50;99.90
42489;DHT22;28118;52.388;9.452;2022-10-18T17:13:45;13.40;99.90
42489;DHT22;28118;52.388;9.452;2022-10-18T17:16:41;13.40;99.90
42489;DHT22;28118;52.388;9.452;2022-10-18T17:19:12;13.30;99.90
42489;DHT22;28118;52.388;9.452;2022-10-18T17:21:40;13.20;99.90
42489;DHT22;28118;52.388;9.452;2022-10-18T17:24:06;13.10;99.90
42489;DHT22;28118;52.388;9.452;2022-10-18T17:26:33;13.00;99.90
42489;DHT22;28118;52.388;9.452;2022-10-18T17:29:04;12.90;99.90
42489;DHT22;28118;52.388;9.452;2022-10-18T17:31:31;12.80;99.90
42489;DHT22;28118;52.388;9.452;2022-10-18T17:33:58;12.80;99.90
42489;DHT22;28118;52.388;9.452;2022-10-18T17:36:28;12.70;99.90
42489;DHT22;28118;52.388;9.452;2022-10-18T17:38:56;12.60;99.90
42489;DHT22;28118;52.388;9.452;2022-10-18T17:41:23;12.40;99.90
42489;DHT22;28118;52.388;9.452;2022-10-18T17:43:49;12.20;99.90
42489;DHT22;28118;52.388;9.452;2022-10-18T17:46:18;12.00;99.90
42489;DHT22;28118;52.388;9.452;2022-10-18T17:48:45;11.80;99.90
42489;DHT22;28118;52.388;9.452;2022-10-18T17:51:14;11.80;99.90
42489;DHT22;28118;52.388;9.452;2022-10-18T17:53:41;11.80;99.90
42489;DHT22;28118;52.388;9.452;2022-10-18T17:56:09;11.70;99.90
42489;DHT22;28118;52.388;9.452;2022-10-18T17:58:36;11.50;99.90
42489;DHT22;28118;52.388;9.452;2022-10-18T18:01:17;11.40;99.90
42489;DHT22;28118;52.388;9.452;2022-10-18T18:03:45;11.40;99.90
42489;DHT22;28118;52.388;9.452;2022-10-18T18:06:21;11.30;99.90
42489;DHT22;28118;52.388;9.452;2022-10-18T18:08:49;11.20;99.90
42489;DHT22;28118;52.388;9.452;2022-10-18T18:11:16;11.20;99.90
42489;DHT22;28118;52.388;9.452;2022-10-18T18:13:43;11.10;99.90
42489;DHT22;28118;52.388;9.452;2022-10-18T18:16:21;11.00;99.90